sensor_id;sensor_type;location;lat;lon;timestamp;pressure;altitude;pressure_sealevel;temperature;humidity
40612;BME280;26317;44.894;20.286;2024-03-29T00:00:45;100143.47;;;14.60;65.25
40612;BME280;26317;44.894;20.286;2024-03-29T00:03:12;100136.88;;;14.53;65.14
40612;BME280;26317;44.894;20.286;2024-03-29T00:05:54;100150.06;;;14.54;65.28
40612;BME280;26317;44.894;20.286;2024-03-29T00:08:27;100159.59;;;14.52;65.04
40612;BME280;26317;44.894;20.286;2024-03-29T00:11:07;100165.28;;;14.50;65.57
40612;BME280;26317;44.894;20.286;2024-03-29T00:13:39;100161.59;;;14.46;65.26
40612;BME280;26317;44.894;20.286;2024-03-29T00:16:11;100168.59;;;14.47;65.55
40612;BME280;26317;44.894;20.286;2024-03-29T00:18:41;100164.28;;;14.46;65.22
40612;BME280;26317;44.894;20.286;2024-03-29T00:21:23;100161.13;;;14.31;65.93
40612;BME280;26317;44.894;20.286;2024-03-29T00:23:51;100168.59;;;14.34;66.53
40612;BME280;26317;44.894;20.286;2024-03-29T00:26:19;100162.41;;;14.33;66.68
40612;BME280;26317;44.894;20.286;2024-03-29T00:28:49;100169.91;;;14.36;66.89
40612;BME280;26317;44.894;20.286;2024-03-29T00:31:19;100169.91;;;14.36;66.69
40612;BME280;26317;44.894;20.286;2024-03-29T00:33:53;100175.31;;;14.36;67.03
40612;BME280;26317;44.894;20.286;2024-03-29T00:36:27;100166.44;;;14.36;67.04
40612;BME280;26317;44.894;20.286;2024-03-29T00:39:00;100164.50;;;14.36;67.24
40612;BME280;26317;44.894;20.286;2024-03-29T00:41:33;100168.41;;;14.30;66.46
40612;BME280;26317;44.894;20.286;2024-03-29T00:44:11;100176.44;;;14.35;66.54
40612;BME280;26317;44.894;20.286;2024-03-29T00:46:43;100169.63;;;14.38;66.59
40612;BME280;26317;44.894;20.286;2024-03-29T00:49:12;100179.03;;;14.40;66.83
40612;BME280;26317;44.894;20.286;2024-03-29T00:51:49;100179.59;;;14.37;66.68
40612;BME280;26317;44.894;20.286;2024-03-29T00:54:24;100167.50;;;14.35;67.02
40612;BME280;26317;44.894;20.286;2024-03-29T00:56:51;100176.00;;;14.28;66.88
40612;BME280;26317;44.894;20.286;2024-03-29T00:59:20;100178.09;;;14.31;66.69
40612;BME280;26317;44.894;20.286;2024-03-29T01:01:50;100179.22;;;14.30;67.06
40612;BME280;26317;44.894;20.286;2024-03-29T01:04:21;100192.19;;;14.28;67.02
40612;BME280;26317;44.894;20.286;2024-03-29T01:07:13;100193.91;;;14.24;67.47
40612;BME280;26317;44.894;20.286;2024-03-29T01:09:47;100193.13;;;14.23;67.27
40612;BME280;26317;44.894;20.286;2024-03-29T01:12:20;100197.72;;;14.23;67.43
40612;BME280;26317;44.894;20.286;2024-03-29T01:15:00;100210.69;;;14.21;67.08
40612;BME280;26317;44.894;20.286;2024-03-29T01:17:34;100186.13;;;14.09;67.46
40612;BME280;26317;44.894;20.286;2024-03-29T01:20:03;100211.13;;;14.14;67.59
40612;BME280;26317;44.894;20.286;2024-03-29T01:22:53;100208.31;;;14.06;68.01
40612;BME280;26317;44.894;20.286;2024-03-29T01:25:24;100203.22;;;14.04;68.84
40612;BME280;26317;44.894;20.286;2024-03-29T01:28:05;100209.91;;;14.07;68.94
40612;BME280;26317;44.894;20.286;2024-03-29T01:30:35;100218.13;;;14.02;68.87
40612;BME280;26317;44.894;20.286;2024-03-29T01:33:07;100209.63;;;13.95;69.48
40612;BME280;26317;44.894;20.286;2024-03-29T01:35:34;100202.94;;;13.78;70.05
40612;BME280;26317;44.894;20.286;2024-03-29T01:38:08;100223.59;;;13.83;70.44
40612;BME280;26317;44.894;20.286;2024-03-29T01:40:36;100232.00;;;13.81;70.95
40612;BME280;26317;44.894;20.286;2024-03-29T01:43:06;100237.69;;;13.80;70.92
40612;BME280;26317;44.894;20.286;2024-03-29T01:45:39;100254.06;;;13.83;70.98
40612;BME280;26317;44.894;20.286;2024-03-29T01:48:09;100246.50;;;13.86;71.24
40612;BME280;26317;44.894;20.286;2024-03-29T01:50:37;100252.88;;;13.90;71.54
40612;BME280;26317;44.894;20.286;2024-03-29T01:53:16;100243.28;;;13.83;71.69
40612;BME280;26317;44.894;20.286;2024-03-29T01:55:50;100257.38;;;13.94;72.07
40612;BME280;26317;44.894;20.286;2024-03-29T01:58:21;100267.75;;;14.01;72.24
40612;BME280;26317;44.894;20.286;2024-03-29T02:00:56;100272.06;;;14.02;72.52
40612;BME280;26317;44.894;20.286;2024-03-29T02:03:30;100281.72;;;14.03;72.54
40612;BME280;26317;44.894;20.286;2024-03-29T02:06:00;100291.03;;;14.10;72.54
40612;BME280;26317;44.894;20.286;2024-03-29T02:08:38;100294.13;;;14.17;72.28
40612;BME280;26317;44.894;20.286;2024-03-29T02:11:12;100307.00;;;14.20;72.03
40612;BME280;26317;44.894;20.286;2024-03-29T02:13:51;100394.84;;;13.80;73.94
40612;BME280;26317;44.894;20.286;2024-03-29T02:16:19;100380.91;;;13.41;73.60
40612;BME280;26317;44.894;20.286;2024-03-29T02:18:58;100387.63;;;13.44;71.60
40612;BME280;26317;44.894;20.286;2024-03-29T02:21:32;100405.88;;;13.98;68.84
40612;BME280;26317;44.894;20.286;2024-03-29T02:24:11;100428.00;;;14.27;67.94
40612;BME280;26317;44.894;20.286;2024-03-29T02:26:51;100463.66;;;14.10;72.01
40612;BME280;26317;44.894;20.286;2024-03-29T02:29:23;100463.94;;;13.90;74.16
40612;BME280;26317;44.894;20.286;2024-03-29T02:31:55;100459.09;;;13.36;76.97
40612;BME280;26317;44.894;20.286;2024-03-29T02:34:27;100479.56;;;13.18;78.39
40612;BME280;26317;44.894;20.286;2024-03-29T02:37:02;100481.97;;;12.96;79.93
40612;BME280;26317;44.894;20.286;2024-03-29T02:39:42;100500.84;;;12.91;79.81
40612;BME280;26317;44.894;20.286;2024-03-29T02:42:10;100494.31;;;12.73;81.30
40612;BME280;26317;44.894;20.286;2024-03-29T02:44:55;100492.22;;;12.70;82.26
40612;BME280;26317;44.894;20.286;2024-03-29T02:47:31;100503.50;;;12.72;83.08
40612;BME280;26317;44.894;20.286;2024-03-29T02:50:02;100517.81;;;12.68;84.54
40612;BME280;26317;44.894;20.286;2024-03-29T02:52:35;100509.25;;;12.61;84.97
40612;BME280;26317;44.894;20.286;2024-03-29T02:55:08;100549.38;;;12.86;85.13
40612;BME280;26317;44.894;20.286;2024-03-29T02:57:39;100550.00;;;12.78;86.19
40612;BME280;26317;44.894;20.286;2024-03-29T03:00:23;100544.50;;;12.88;83.90
40612;BME280;26317;44.894;20.286;2024-03-29T03:02:55;100552.50;;;12.69;80.65
40612;BME280;26317;44.894;20.286;2024-03-29T03:05:31;100552.66;;;12.54;80.82
40612;BME280;26317;44.894;20.286;2024-03-29T03:08:01;100561.56;;;12.50;81.49
40612;BME280;26317;44.894;20.286;2024-03-29T03:10:53;100566.16;;;12.44;82.29
40612;BME280;26317;44.894;20.286;2024-03-29T03:13:28;100578.06;;;12.38;83.26
40612;BME280;26317;44.894;20.286;2024-03-29T03:15:58;100578.13;;;12.28;84.42
40612;BME280;26317;44.894;20.286;2024-03-29T03:18:30;100581.34;;;12.35;84.49
40612;BME280;26317;44.894;20.286;2024-03-29T03:21:00;100587.56;;;12.30;85.63
40612;BME280;26317;44.894;20.286;2024-03-29T03:23:27;100593.44;;;12.32;85.01
40612;BME280;26317;44.894;20.286;2024-03-29T03:26:07;100584.31;;;12.28;85.21
40612;BME280;26317;44.894;20.286;2024-03-29T03:28:39;100579.72;;;12.34;85.34
40612;BME280;26317;44.894;20.286;2024-03-29T03:31:08;100592.59;;;12.37;85.53
40612;BME280;26317;44.894;20.286;2024-03-29T03:33:42;100600.41;;;12.38;84.50
40612;BME280;26317;44.894;20.286;2024-03-29T03:36:12;100594.81;;;12.30;84.36
40612;BME280;26317;44.894;20.286;2024-03-29T03:38:42;100592.28;;;12.43;83.77
40612;BME280;26317;44.894;20.286;2024-03-29T03:41:16;100601.91;;;12.50;83.11
40612;BME280;26317;44.894;20.286;2024-03-29T03:43:57;100617.75;;;12.56;83.09
40612;BME280;26317;44.894;20.286;2024-03-29T03:46:28;100624.22;;;12.55;82.92
40612;BME280;26317;44.894;20.286;2024-03-29T03:49:04;100620.06;;;12.68;82.46
40612;BME280;26317;44.894;20.286;2024-03-29T03:51:46;100624.91;;;12.66;82.32
40612;BME280;26317;44.894;20.286;2024-03-29T03:54:24;100621.91;;;12.72;82.49
40612;BME280;26317;44.894;20.286;2024-03-29T03:56:58;100629.38;;;12.80;81.61
40612;BME280;26317;44.894;20.286;2024-03-29T03:59:27;100625.84;;;12.85;81.01
40612;BME280;26317;44.894;20.286;2024-03-29T04:01:55;100622.84;;;12.86;80.59
40612;BME280;26317;44.894;20.286;2024-03-29T04:04:34;100632.78;;;12.91;80.79
40612;BME280;26317;44.894;20.286;2024-03-29T04:07:08;100630.06;;;12.91;80.56
40612;BME280;26317;44.894;20.286;2024-03-29T04:09:40;100634.97;;;12.89;80.45
40612;BME280;26317;44.894;20.286;2024-03-29T04:12:24;100648.13;;;12.90;80.64
40612;BME280;26317;44.894;20.286;2024-03-29T04:14:54;100636.31;;;12.86;79.55
40612;BME280;26317;44.894;20.286;2024-03-29T04:17:40;100634.41;;;12.87;79.20
40612;BME280;26317;44.894;20.286;2024-03-29T04:20:20;100633.69;;;12.81;78.50
40612;BME280;26317;44.894;20.286;2024-03-29T04:22:58;100635.81;;;12.84;78.47
40612;BME280;26317;44.894;20.286;2024-03-29T04:25:29;100632.03;;;12.85;78.60
40612;BME280;26317;44.894;20.286;2024-03-29T04:28:08;100632.81;;;12.86;78.49
40612;BME280;26317;44.894;20.286;2024-03-29T04:30:35;100630.94;;;12.86;78.59
40612;BME280;26317;44.894;20.286;2024-03-29T04:33:06;100627.97;;;12.88;78.20
40612;BME280;26317;44.894;20.286;2024-03-29T04:35:39;100628.81;;;12.83;77.74
40612;BME280;26317;44.894;20.286;2024-03-29T04:38:16;100641.47;;;12.83;77.80
40612;BME280;26317;44.894;20.286;2024-03-29T04:40:47;100642.88;;;12.75;77.83
40612;BME280;26317;44.894;20.286;2024-03-29T04:43:25;100645.34;;;12.72;77.85
40612;BME280;26317;44.894;20.286;2024-03-29T04:46:08;100644.44;;;12.81;78.03
40612;BME280;26317;44.894;20.286;2024-03-29T04:48:43;100643.91;;;12.79;77.87
40612;BME280;26317;44.894;20.286;2024-03-29T04:51:12;100647.16;;;12.81;78.03
40612;BME280;26317;44.894;20.286;2024-03-29T04:53:40;100648.50;;;12.79;78.01
40612;BME280;26317;44.894;20.286;2024-03-29T04:56:17;100651.22;;;12.74;77.86
40612;BME280;26317;44.894;20.286;2024-03-29T04:58:49;100646.66;;;12.74;78.28
40612;BME280;26317;44.894;20.286;2024-03-29T05:01:20;100653.41;;;12.72;79.05
40612;BME280;26317;44.894;20.286;2024-03-29T05:03:52;100670.28;;;12.77;79.03
40612;BME280;26317;44.894;20.286;2024-03-29T05:06:26;100667.34;;;12.79;79.01
40612;BME280;26317;44.894;20.286;2024-03-29T05:08:56;100654.34;;;12.86;78.94
40612;BME280;26317;44.894;20.286;2024-03-29T05:11:24;100659.41;;;12.93;78.49
40612;BME280;26317;44.894;20.286;2024-03-29T05:14:10;100655.13;;;12.91;78.25
40612;BME280;26317;44.894;20.286;2024-03-29T05:16:38;100669.56;;;13.01;78.05
40612;BME280;26317;44.894;20.286;2024-03-29T05:19:14;100669.03;;;12.99;78.01
40612;BME280;26317;44.894;20.286;2024-03-29T05:21:53;100664.75;;;12.98;77.85
40612;BME280;26317;44.894;20.286;2024-03-29T05:24:22;100667.97;;;13.00;77.72
40612;BME280;26317;44.894;20.286;2024-03-29T05:27:03;100667.91;;;13.05;77.43
40612;BME280;26317;44.894;20.286;2024-03-29T05:29:58;100663.56;;;13.09;77.53
40612;BME280;26317;44.894;20.286;2024-03-29T05:32:27;100670.31;;;13.11;77.47
40612;BME280;26317;44.894;20.286;2024-03-29T05:35:07;100664.38;;;13.09;77.32
40612;BME280;26317;44.894;20.286;2024-03-29T05:37:50;100664.91;;;13.11;78.54
40612;BME280;26317;44.894;20.286;2024-03-29T05:40:39;100665.69;;;13.17;78.17
40612;BME280;26317;44.894;20.286;2024-03-29T05:43:11;100664.56;;;13.23;78.26
40612;BME280;26317;44.894;20.286;2024-03-29T05:45:53;100664.28;;;13.19;78.18
40612;BME280;26317;44.894;20.286;2024-03-29T05:48:24;100672.06;;;13.26;77.26
40612;BME280;26317;44.894;20.286;2024-03-29T05:50:58;100670.63;;;13.33;76.78
40612;BME280;26317;44.894;20.286;2024-03-29T05:53:30;100668.66;;;13.44;76.64
40612;BME280;26317;44.894;20.286;2024-03-29T05:56:01;100672.28;;;13.53;76.05
40612;BME280;26317;44.894;20.286;2024-03-29T05:58:33;100676.78;;;13.63;74.83
40612;BME280;26317;44.894;20.286;2024-03-29T06:01:26;100681.53;;;13.71;74.26
40612;BME280;26317;44.894;20.286;2024-03-29T06:04:01;100683.59;;;13.79;74.06
40612;BME280;26317;44.894;20.286;2024-03-29T06:06:35;100679.44;;;13.87;73.87
40612;BME280;26317;44.894;20.286;2024-03-29T06:09:13;100677.22;;;13.94;72.76
40612;BME280;26317;44.894;20.286;2024-03-29T06:11:57;100672.31;;;13.96;73.87
40612;BME280;26317;44.894;20.286;2024-03-29T06:14:27;100673.22;;;14.10;73.37
40612;BME280;26317;44.894;20.286;2024-03-29T06:17:19;100664.06;;;14.11;72.42
40612;BME280;26317;44.894;20.286;2024-03-29T06:19:56;100674.63;;;14.26;72.35
40612;BME280;26317;44.894;20.286;2024-03-29T06:22:39;100677.25;;;14.31;72.56
40612;BME280;26317;44.894;20.286;2024-03-29T06:25:09;100687.34;;;14.44;71.93
40612;BME280;26317;44.894;20.286;2024-03-29T06:27:52;100683.41;;;14.55;71.78
40612;BME280;26317;44.894;20.286;2024-03-29T06:30:22;100673.53;;;14.64;71.81
40612;BME280;26317;44.894;20.286;2024-03-29T06:33:01;100673.81;;;14.82;70.88
40612;BME280;26317;44.894;20.286;2024-03-29T06:35:34;100683.81;;;14.95;70.46
40612;BME280;26317;44.894;20.286;2024-03-29T06:38:05;100660.13;;;14.92;70.17
40612;BME280;26317;44.894;20.286;2024-03-29T06:40:33;100684.59;;;15.14;69.49
40612;BME280;26317;44.894;20.286;2024-03-29T06:43:13;100691.59;;;15.15;69.45
40612;BME280;26317;44.894;20.286;2024-03-29T06:45:41;100696.81;;;15.25;69.51
40612;BME280;26317;44.894;20.286;2024-03-29T06:48:26;100695.63;;;15.31;69.97
40612;BME280;26317;44.894;20.286;2024-03-29T06:50:56;100697.94;;;15.38;69.04
40612;BME280;26317;44.894;20.286;2024-03-29T06:53:27;100698.75;;;15.38;68.78
40612;BME280;26317;44.894;20.286;2024-03-29T06:55:56;100711.78;;;15.50;76.07
40612;BME280;26317;44.894;20.286;2024-03-29T06:58:27;100714.00;;;15.61;74.41
40612;BME280;26317;44.894;20.286;2024-03-29T07:01:04;100714.00;;;15.75;72.74
40612;BME280;26317;44.894;20.286;2024-03-29T07:03:39;100712.78;;;15.95;72.67
40612;BME280;26317;44.894;20.286;2024-03-29T07:06:13;100713.59;;;16.09;68.57
40612;BME280;26317;44.894;20.286;2024-03-29T07:08:45;100722.00;;;16.21;69.31
40612;BME280;26317;44.894;20.286;2024-03-29T07:11:18;100721.78;;;16.31;68.68
40612;BME280;26317;44.894;20.286;2024-03-29T07:13:55;100711.44;;;16.33;68.69
40612;BME280;26317;44.894;20.286;2024-03-29T07:16:25;100722.53;;;16.45;68.70
40612;BME280;26317;44.894;20.286;2024-03-29T07:19:21;100723.34;;;16.46;66.80
40612;BME280;26317;44.894;20.286;2024-03-29T07:21:50;100723.13;;;16.56;67.86
40612;BME280;26317;44.894;20.286;2024-03-29T07:24:31;100723.53;;;16.63;67.05
40612;BME280;26317;44.894;20.286;2024-03-29T07:27:03;100735.34;;;16.67;66.57
40612;BME280;26317;44.894;20.286;2024-03-29T07:29:35;100737.03;;;16.77;66.35
40612;BME280;26317;44.894;20.286;2024-03-29T07:32:12;100730.06;;;16.84;65.41
40612;BME280;26317;44.894;20.286;2024-03-29T07:34:56;100718.50;;;16.92;65.28
40612;BME280;26317;44.894;20.286;2024-03-29T07:40:19;100739.78;;;17.08;63.62
40612;BME280;26317;44.894;20.286;2024-03-29T07:43:01;100728.53;;;17.14;62.88
40612;BME280;26317;44.894;20.286;2024-03-29T07:45:32;100717.06;;;17.17;62.88
40612;BME280;26317;44.894;20.286;2024-03-29T07:48:15;100726.81;;;17.18;62.39
40612;BME280;26317;44.894;20.286;2024-03-29T07:50:58;100723.63;;;17.25;62.14
40612;BME280;26317;44.894;20.286;2024-03-29T07:53:37;100726.09;;;17.35;60.58
40612;BME280;26317;44.894;20.286;2024-03-29T07:56:11;100727.88;;;17.39;60.17
40612;BME280;26317;44.894;20.286;2024-03-29T07:58:43;100714.16;;;17.36;61.25
40612;BME280;26317;44.894;20.286;2024-03-29T08:01:23;100736.22;;;17.52;60.92
40612;BME280;26317;44.894;20.286;2024-03-29T08:03:59;100730.06;;;17.60;62.09
40612;BME280;26317;44.894;20.286;2024-03-29T08:06:41;100733.00;;;17.72;60.63
40612;BME280;26317;44.894;20.286;2024-03-29T08:09:19;100732.72;;;17.82;60.45
40612;BME280;26317;44.894;20.286;2024-03-29T08:11:54;100735.66;;;17.94;59.54
40612;BME280;26317;44.894;20.286;2024-03-29T08:14:24;100734.38;;;18.00;60.12
40612;BME280;26317;44.894;20.286;2024-03-29T08:16:56;100738.06;;;18.13;60.20
40612;BME280;26317;44.894;20.286;2024-03-29T08:19:32;100726.44;;;18.21;59.09
40612;BME280;26317;44.894;20.286;2024-03-29T08:22:04;100733.66;;;18.34;59.35
40612;BME280;26317;44.894;20.286;2024-03-29T08:24:34;100735.56;;;18.42;59.38
40612;BME280;26317;44.894;20.286;2024-03-29T08:27:08;100739.91;;;18.52;57.79
40612;BME280;26317;44.894;20.286;2024-03-29T08:29:55;100732.75;;;18.64;57.58
40612;BME280;26317;44.894;20.286;2024-03-29T08:32:29;100737.84;;;18.74;56.12
40612;BME280;26317;44.894;20.286;2024-03-29T08:35:00;100729.53;;;18.71;57.15
40612;BME280;26317;44.894;20.286;2024-03-29T08:37:41;100741.22;;;18.80;57.05
40612;BME280;26317;44.894;20.286;2024-03-29T08:40:12;100744.88;;;18.84;56.31
40612;BME280;26317;44.894;20.286;2024-03-29T08:42:40;100748.09;;;18.86;56.58
40612;BME280;26317;44.894;20.286;2024-03-29T08:45:30;100748.91;;;18.95;55.93
40612;BME280;26317;44.894;20.286;2024-03-29T08:48:22;100745.03;;;19.05;56.20
40612;BME280;26317;44.894;20.286;2024-03-29T08:50:58;100742.16;;;19.10;55.54
40612;BME280;26317;44.894;20.286;2024-03-29T08:53:42;100731.59;;;19.08;55.21
40612;BME280;26317;44.894;20.286;2024-03-29T08:56:21;100744.53;;;19.20;56.49
40612;BME280;26317;44.894;20.286;2024-03-29T08:58:52;100744.03;;;19.26;56.19
40612;BME280;26317;44.894;20.286;2024-03-29T09:01:33;100747.53;;;19.36;55.53
40612;BME280;26317;44.894;20.286;2024-03-29T09:04:04;100736.97;;;19.43;54.88
40612;BME280;26317;44.894;20.286;2024-03-29T09:06:31;100737.75;;;19.52;54.30
40612;BME280;26317;44.894;20.286;2024-03-29T09:09:18;100729.88;;;19.59;53.91
40612;BME280;26317;44.894;20.286;2024-03-29T09:11:48;100737.88;;;19.64;53.58
40612;BME280;26317;44.894;20.286;2024-03-29T09:14:29;100726.28;;;19.75;53.58
40612;BME280;26317;44.894;20.286;2024-03-29T09:16:56;100697.34;;;19.71;53.98
40612;BME280;26317;44.894;20.286;2024-03-29T09:19:27;100729.56;;;19.98;53.55
40612;BME280;26317;44.894;20.286;2024-03-29T09:22:00;100734.81;;;20.03;52.10
40612;BME280;26317;44.894;20.286;2024-03-29T09:24:42;100728.19;;;20.13;53.59
40612;BME280;26317;44.894;20.286;2024-03-29T09:27:15;100725.88;;;20.24;53.27
40612;BME280;26317;44.894;20.286;2024-03-29T09:29:47;100727.59;;;20.37;52.23
40612;BME280;26317;44.894;20.286;2024-03-29T09:32:18;100726.91;;;20.40;51.64
40612;BME280;26317;44.894;20.286;2024-03-29T09:34:48;100714.91;;;20.41;51.72
40612;BME280;26317;44.894;20.286;2024-03-29T09:37:18;100718.34;;;20.50;51.48
40612;BME280;26317;44.894;20.286;2024-03-29T09:39:57;100710.81;;;20.67;50.98
40612;BME280;26317;44.894;20.286;2024-03-29T09:42:31;100684.56;;;20.63;51.49
40612;BME280;26317;44.894;20.286;2024-03-29T09:45:12;100711.72;;;20.92;49.48
40612;BME280;26317;44.894;20.286;2024-03-29T09:47:50;100711.75;;;21.04;47.46
40612;BME280;26317;44.894;20.286;2024-03-29T09:50:27;100715.28;;;21.05;47.54
40612;BME280;26317;44.894;20.286;2024-03-29T09:53:08;100709.28;;;21.11;49.27
40612;BME280;26317;44.894;20.286;2024-03-29T09:55:49;100708.44;;;21.20;47.74
40612;BME280;26317;44.894;20.286;2024-03-29T09:58:24;100686.81;;;21.15;46.62
40612;BME280;26317;44.894;20.286;2024-03-29T10:00:55;100698.34;;;21.32;47.92
40612;BME280;26317;44.894;20.286;2024-03-29T10:03:29;100704.16;;;21.43;47.50
40612;BME280;26317;44.894;20.286;2024-03-29T10:06:17;100694.16;;;21.47;44.37
40612;BME280;26317;44.894;20.286;2024-03-29T10:08:51;100697.34;;;21.49;48.15
40612;BME280;26317;44.894;20.286;2024-03-29T10:11:34;100708.97;;;21.58;46.36
40612;BME280;26317;44.894;20.286;2024-03-29T10:14:06;100712.72;;;21.66;43.97
40612;BME280;26317;44.894;20.286;2024-03-29T10:16:35;100703.03;;;21.80;45.27
40612;BME280;26317;44.894;20.286;2024-03-29T10:19:03;100703.28;;;21.87;45.26
40612;BME280;26317;44.894;20.286;2024-03-29T10:21:36;100706.47;;;22.01;44.27
40612;BME280;26317;44.894;20.286;2024-03-29T10:24:21;100700.56;;;22.12;44.41
40612;BME280;26317;44.894;20.286;2024-03-29T10:26:55;100701.66;;;22.23;42.81
40612;BME280;26317;44.894;20.286;2024-03-29T10:29:35;100689.38;;;22.29;44.97
40612;BME280;26317;44.894;20.286;2024-03-29T10:32:07;100697.66;;;22.32;42.74
40612;BME280;26317;44.894;20.286;2024-03-29T10:34:36;100692.09;;;22.29;43.51
40612;BME280;26317;44.894;20.286;2024-03-29T10:37:13;100698.34;;;22.29;42.49
40612;BME280;26317;44.894;20.286;2024-03-29T10:39:42;100696.16;;;22.35;41.64
40612;BME280;26317;44.894;20.286;2024-03-29T10:42:28;100692.88;;;22.29;42.54
40612;BME280;26317;44.894;20.286;2024-03-29T10:44:58;100683.91;;;22.29;41.18
40612;BME280;26317;44.894;20.286;2024-03-29T10:47:33;100678.88;;;22.31;41.54
40612;BME280;26317;44.894;20.286;2024-03-29T10:50:17;100682.97;;;22.37;41.83
40612;BME280;26317;44.894;20.286;2024-03-29T10:52:55;100679.28;;;22.45;40.67
40612;BME280;26317;44.894;20.286;2024-03-29T10:55:29;100680.44;;;22.44;41.70
40612;BME280;26317;44.894;20.286;2024-03-29T10:58:10;100671.38;;;22.56;42.60
40612;BME280;26317;44.894;20.286;2024-03-29T11:00:56;100667.06;;;22.55;41.90
40612;BME280;26317;44.894;20.286;2024-03-29T11:03:44;100661.34;;;22.60;41.32
40612;BME280;26317;44.894;20.286;2024-03-29T11:06:26;100654.41;;;22.62;40.83
40612;BME280;26317;44.894;20.286;2024-03-29T11:08:58;100657.81;;;22.59;39.22
40612;BME280;26317;44.894;20.286;2024-03-29T11:11:32;100654.44;;;22.50;40.64
40612;BME280;26317;44.894;20.286;2024-03-29T11:14:13;100649.06;;;22.54;41.29
40612;BME280;26317;44.894;20.286;2024-03-29T11:16:51;100657.13;;;22.62;39.29
40612;BME280;26317;44.894;20.286;2024-03-29T11:19:33;100656.44;;;22.65;41.66
40612;BME280;26317;44.894;20.286;2024-03-29T11:22:16;100645.38;;;22.74;39.87
40612;BME280;26317;44.894;20.286;2024-03-29T11:24:46;100644.41;;;22.82;40.92
40612;BME280;26317;44.894;20.286;2024-03-29T11:27:14;100642.22;;;22.87;40.50
40612;BME280;26317;44.894;20.286;2024-03-29T11:30:14;100641.88;;;23.05;41.30
40612;BME280;26317;44.894;20.286;2024-03-29T11:32:47;100629.25;;;23.31;41.08
40612;BME280;26317;44.894;20.286;2024-03-29T11:35:16;100636.09;;;23.53;37.57
40612;BME280;26317;44.894;20.286;2024-03-29T11:37:56;100641.47;;;23.65;37.72
40612;BME280;26317;44.894;20.286;2024-03-29T11:40:38;100632.53;;;23.68;38.34
40612;BME280;26317;44.894;20.286;2024-03-29T11:43:08;100623.03;;;23.81;39.22
40612;BME280;26317;44.894;20.286;2024-03-29T11:45:52;100614.56;;;23.87;39.27
40612;BME280;26317;44.894;20.286;2024-03-29T11:48:27;100614.97;;;23.89;38.16
40612;BME280;26317;44.894;20.286;2024-03-29T11:50:58;100614.28;;;23.92;38.24
40612;BME280;26317;44.894;20.286;2024-03-29T11:53:28;100607.13;;;23.87;38.73
40612;BME280;26317;44.894;20.286;2024-03-29T11:56:04;100620.31;;;24.01;39.01
40612;BME280;26317;44.894;20.286;2024-03-29T11:58:45;100620.03;;;24.06;38.07
40612;BME280;26317;44.894;20.286;2024-03-29T12:01:20;100606.88;;;24.11;38.09
40612;BME280;26317;44.894;20.286;2024-03-29T12:03:50;100606.94;;;24.34;37.06
40612;BME280;26317;44.894;20.286;2024-03-29T12:06:21;100606.91;;;24.50;34.84
40612;BME280;26317;44.894;20.286;2024-03-29T12:08:51;100600.53;;;24.46;33.29
40612;BME280;26317;44.894;20.286;2024-03-29T12:11:25;100596.16;;;24.41;34.04
40612;BME280;26317;44.894;20.286;2024-03-29T12:13:56;100600.38;;;24.39;34.54
40612;BME280;26317;44.894;20.286;2024-03-29T12:17:01;100601.41;;;24.31;34.91
40612;BME280;26317;44.894;20.286;2024-03-29T12:19:33;100588.63;;;24.19;34.60
40612;BME280;26317;44.894;20.286;2024-03-29T12:22:19;100576.47;;;24.16;35.54
40612;BME280;26317;44.894;20.286;2024-03-29T12:24:50;100580.34;;;24.15;37.65
40612;BME280;26317;44.894;20.286;2024-03-29T12:27:19;100578.94;;;24.06;37.30
40612;BME280;26317;44.894;20.286;2024-03-29T12:30:08;100574.97;;;24.03;36.45
40612;BME280;26317;44.894;20.286;2024-03-29T12:32:41;100572.19;;;24.00;35.03
40612;BME280;26317;44.894;20.286;2024-03-29T12:35:09;100570.94;;;23.97;35.62
40612;BME280;26317;44.894;20.286;2024-03-29T12:37:59;100562.06;;;24.04;35.50
40612;BME280;26317;44.894;20.286;2024-03-29T12:40:32;100567.16;;;24.21;36.50
40612;BME280;26317;44.894;20.286;2024-03-29T12:43:07;100563.41;;;24.29;35.58
40612;BME280;26317;44.894;20.286;2024-03-29T12:45:46;100552.97;;;24.38;35.25
40612;BME280;26317;44.894;20.286;2024-03-29T12:48:30;100547.19;;;24.43;34.16
40612;BME280;26317;44.894;20.286;2024-03-29T12:51:19;100545.53;;;24.39;35.63
40612;BME280;26317;44.894;20.286;2024-03-29T12:53:56;100552.53;;;24.55;36.06
40612;BME280;26317;44.894;20.286;2024-03-29T12:56:23;100553.28;;;24.75;35.33
40612;BME280;26317;44.894;20.286;2024-03-29T12:58:53;100542.50;;;24.86;34.49
40612;BME280;26317;44.894;20.286;2024-03-29T13:01:21;100542.69;;;24.96;33.18
40612;BME280;26317;44.894;20.286;2024-03-29T13:04:00;100533.97;;;24.91;34.94
40612;BME280;26317;44.894;20.286;2024-03-29T13:06:28;100542.63;;;24.93;35.49
40612;BME280;26317;44.894;20.286;2024-03-29T13:09:06;100540.31;;;24.95;34.67
40612;BME280;26317;44.894;20.286;2024-03-29T13:11:35;100533.22;;;24.94;34.52
40612;BME280;26317;44.894;20.286;2024-03-29T13:14:05;100520.66;;;24.93;33.89
40612;BME280;26317;44.894;20.286;2024-03-29T13:16:39;100516.28;;;24.88;33.17
40612;BME280;26317;44.894;20.286;2024-03-29T13:19:16;100515.91;;;24.90;33.75
40612;BME280;26317;44.894;20.286;2024-03-29T13:21:54;100515.91;;;24.90;33.49
40612;BME280;26317;44.894;20.286;2024-03-29T13:24:26;100525.31;;;24.89;32.66